createdAt,value
2022-11-06T00:02:02.301Z,5.63
2022-11-06T00:09:37.820Z,5.57
2022-11-06T00:12:06.979Z,5.60
2022-11-06T00:14:35.169Z,6.23
2022-11-06T00:17:03.708Z,6.37
2022-11-06T00:19:31.199Z,4.97
2022-11-06T00:21:58.575Z,5.57
2022-11-06T00:24:26.022Z,5.37
2022-11-06T00:40:30.702Z,5.23
2022-11-06T00:42:59.546Z,6.30
2022-11-06T00:45:27.105Z,4.37
2022-11-06T00:47:54.349Z,5.00
2022-11-06T00:50:25.710Z,4.30
2022-11-06T00:52:54.013Z,4.83
2022-11-06T00:55:22.021Z,4.73
2022-11-06T01:02:44.288Z,5.77
2022-11-06T01:05:12.472Z,6.33
2022-11-06T01:07:40.453Z,6.37
2022-11-06T01:10:08.939Z,7.70
2022-11-06T01:12:38.334Z,6.13
2022-11-06T01:15:07.158Z,5.33
2022-11-06T01:17:35.631Z,6.07
2022-11-06T01:22:46.255Z,5.90
2022-11-06T01:25:14.623Z,6.13
2022-11-06T01:27:42.020Z,5.73
2022-11-06T01:30:10.258Z,6.30
2022-11-06T01:32:37.670Z,5.23
2022-11-06T01:35:06.450Z,5.03
2022-11-06T01:37:33.936Z,5.50
2022-11-06T01:40:02.389Z,5.40
2022-11-06T01:47:30.484Z,4.93
2022-11-06T01:50:00.431Z,5.67
2022-11-06T01:52:29.960Z,7.07
2022-11-06T01:55:03.498Z,5.83
2022-11-06T01:57:30.844Z,5.93
2022-11-06T01:59:58.555Z,5.33
2022-11-06T02:02:26.721Z,7.20
2022-11-06T02:10:00.620Z,7.77
2022-11-06T02:12:42.782Z,6.03
2022-11-06T02:15:30.509Z,6.67
2022-11-06T02:18:15.913Z,7.13
2022-11-06T02:20:54.639Z,6.87
2022-11-06T02:23:34.279Z,6.23
2022-11-06T02:26:23.757Z,6.67
2022-11-06T02:34:02.039Z,7.40
2022-11-06T02:36:34.857Z,6.63
2022-11-06T02:39:06.087Z,6.87
2022-11-06T02:41:37.662Z,7.83
2022-11-06T02:44:10.177Z,7.23
2022-11-06T02:46:41.204Z,6.23
2022-11-06T02:49:15.456Z,6.30
2022-11-06T02:56:08.899Z,7.20
2022-11-06T02:58:44.763Z,6.60
2022-11-06T03:01:23.428Z,6.33
2022-11-06T03:03:54.828Z,7.93
2022-11-06T03:06:29.797Z,7.47
2022-11-06T03:09:02.189Z,7.43
2022-11-06T03:18:51.999Z,5.77
2022-11-06T03:21:26.225Z,5.47
2022-11-06T03:23:58.596Z,5.60
2022-11-06T03:26:31.111Z,5.00
2022-11-06T03:29:04.197Z,4.57
2022-11-06T03:31:37.176Z,5.13
2022-11-06T03:34:11.961Z,4.73
2022-11-06T03:39:26.061Z,5.23
2022-11-06T03:41:59.883Z,5.20
2022-11-06T03:44:29.083Z,4.90
2022-11-06T03:47:01.021Z,5.33
2022-11-06T03:49:34.199Z,5.13
2022-11-06T03:52:07.292Z,5.13
2022-11-06T03:54:44.068Z,5.67
2022-11-06T04:02:20.906Z,6.03
2022-11-06T04:04:51.541Z,6.07
2022-11-06T04:07:22.738Z,5.03
2022-11-06T04:10:14.897Z,6.47
2022-11-06T04:13:01.179Z,5.70
2022-11-06T04:15:34.556Z,5.30
2022-11-06T04:18:02.900Z,4.73
2022-11-06T04:20:58.228Z,4.90
2022-11-06T04:28:33.753Z,5.03
2022-11-06T04:31:09.834Z,4.67
2022-11-06T04:33:45.967Z,5.00
2022-11-06T04:36:21.655Z,5.17
2022-11-06T04:39:00.999Z,4.70
2022-11-06T04:41:35.169Z,4.20
2022-11-06T04:44:10.317Z,4.63
2022-11-06T04:54:23.970Z,4.27
2022-11-06T04:57:17.272Z,4.40
2022-11-06T05:04:11.080Z,3.57
2022-11-06T05:07:24.891Z,4.03
2022-11-06T05:10:50.931Z,3.53
2022-11-06T05:14:10.120Z,4.40
2022-11-06T05:20:27.366Z,5.03
2022-11-06T05:23:10.399Z,3.97
2022-11-06T05:29:01.097Z,5.30
2022-11-06T05:32:00.062Z,5.50
2022-11-06T05:42:09.308Z,3.97
2022-11-06T05:44:37.180Z,5.70
2022-11-06T05:47:06.389Z,4.53
2022-11-06T05:49:34.366Z,5.40
2022-11-06T05:52:02.024Z,4.93
2022-11-06T05:54:29.816Z,6.73
2022-11-06T05:56:57.258Z,6.93
2022-11-06T06:06:55.593Z,8.70
2022-11-06T06:09:23.271Z,10.40
2022-11-06T06:11:52.919Z,10.40
2022-11-06T06:14:21.125Z,9.70
2022-11-06T06:16:48.439Z,10.43
2022-11-06T06:19:16.482Z,9.67
2022-11-06T06:21:43.809Z,10.37
2022-11-06T06:27:06.575Z,11.80
2022-11-06T06:29:34.067Z,13.30
2022-11-06T06:32:01.375Z,14.70
2022-11-06T06:34:28.968Z,17.73
2022-11-06T06:36:56.444Z,14.03
2022-11-06T06:39:24.147Z,16.03
2022-11-06T06:41:51.512Z,22.70
2022-11-06T06:44:21.105Z,16.50
2022-11-06T07:02:48.446Z,14.00
2022-11-06T07:08:29.650Z,22.63
2022-11-06T07:11:11.854Z,26.80
2022-11-06T07:13:44.882Z,24.90
2022-11-06T07:16:13.172Z,15.47
2022-11-06T07:19:08.071Z,20.47
2022-11-06T07:21:51.223Z,24.07
2022-11-06T07:24:32.953Z,20.17
2022-11-06T07:27:09.539Z,37.27
2022-11-06T07:29:41.696Z,33.73
2022-11-06T07:39:56.648Z,35.43
2022-11-06T07:42:24.684Z,34.60
2022-11-06T07:44:55.037Z,33.17
2022-11-06T07:47:23.289Z,39.33
2022-11-06T07:49:51.595Z,35.70
2022-11-06T07:52:19.414Z,41.57
2022-11-06T07:54:46.734Z,34.47
2022-11-06T07:57:15.593Z,29.90
2022-11-06T08:04:47.177Z,50.70
2022-11-06T08:07:14.845Z,32.43
2022-11-06T08:09:42.513Z,31.67
2022-11-06T08:12:14.089Z,36.93
2022-11-06T08:14:41.727Z,38.70
2022-11-06T08:17:09.469Z,23.20
2022-11-06T08:19:37.333Z,30.37
2022-11-06T08:24:47.747Z,20.93
2022-11-06T08:27:15.065Z,23.43
2022-11-06T08:29:42.676Z,19.43
2022-11-06T08:32:10.154Z,23.63
2022-11-06T08:34:37.854Z,17.00
2022-11-06T08:37:05.929Z,17.50
2022-11-06T08:39:33.182Z,19.03
2022-11-06T08:42:09.563Z,15.70
2022-11-06T08:49:43.426Z,17.37
2022-11-06T08:52:13.869Z,17.87
2022-11-06T08:54:57.032Z,15.17
2022-11-06T08:57:24.906Z,15.50
2022-11-06T08:59:55.809Z,15.90
2022-11-06T09:02:23.620Z,15.87
2022-11-06T09:04:52.442Z,13.43
2022-11-06T09:22:50.986Z,10.77
2022-11-06T09:25:20.167Z,9.17
2022-11-06T09:27:55.702Z,10.27
2022-11-06T09:30:28.664Z,9.67
2022-11-06T09:33:02.001Z,8.60
2022-11-06T09:35:30.966Z,7.90
2022-11-06T09:38:03.838Z,8.33
2022-11-06T09:45:40.686Z,7.97
2022-11-06T09:48:17.826Z,7.27
2022-11-06T09:50:52.776Z,7.93
2022-11-06T09:53:27.877Z,6.80
2022-11-06T09:55:57.776Z,7.37
2022-11-06T09:58:32.084Z,7.17
2022-11-06T10:01:06.495Z,6.47
2022-11-06T10:03:42.434Z,6.13
2022-11-06T10:11:34.666Z,5.57
2022-11-06T10:14:15.305Z,5.77
2022-11-06T10:16:50.072Z,5.67
2022-11-06T10:19:41.413Z,5.33
2022-11-06T10:22:15.164Z,6.07
2022-11-06T10:24:47.423Z,5.53
2022-11-06T10:27:18.824Z,6.70
2022-11-06T10:35:03.547Z,6.27
2022-11-06T10:37:36.614Z,5.33
2022-11-06T10:40:07.124Z,6.13
2022-11-06T10:42:39.485Z,6.03
2022-11-06T10:45:12.546Z,5.70
2022-11-06T10:47:44.195Z,5.47
2022-11-06T10:50:16.007Z,5.23
2022-11-06T10:52:54.616Z,6.37
2022-11-06T11:00:33.736Z,5.63
2022-11-06T11:03:03.405Z,5.60
2022-11-06T11:05:38.128Z,5.40
2022-11-06T11:08:06.491Z,4.90
2022-11-06T11:10:35.191Z,6.90
2022-11-06T11:13:08.415Z,4.37
2022-11-06T11:16:06.753Z,4.30
2022-11-06T11:34:21.595Z,4.70
2022-11-06T11:36:58.466Z,2.93
2022-11-06T11:39:31.175Z,3.70
2022-11-06T11:42:28.128Z,3.20
2022-11-06T11:45:15.747Z,3.30
2022-11-06T11:47:47.959Z,3.10
2022-11-06T11:57:56.799Z,2.57
2022-11-06T12:00:24.877Z,2.93
2022-11-06T12:02:58.492Z,3.73
2022-11-06T12:05:31.800Z,3.37
2022-11-06T12:08:00.530Z,3.30
2022-11-06T12:10:31.712Z,3.53
2022-11-06T12:13:02.297Z,3.23
2022-11-06T12:15:38.658Z,3.60
2022-11-06T12:23:55.086Z,3.50
2022-11-06T12:26:46.026Z,3.03
2022-11-06T12:32:54.547Z,3.40
2022-11-06T12:35:41.586Z,3.53
2022-11-06T12:38:38.239Z,3.47
2022-11-06T12:41:36.659Z,3.60
2022-11-06T12:44:15.826Z,4.13
2022-11-06T12:47:02.068Z,3.87
2022-11-06T12:50:17.476Z,3.63
2022-11-06T13:01:03.925Z,3.80
2022-11-06T13:04:09.639Z,4.50
2022-11-06T13:07:08.399Z,4.10
2022-11-06T13:09:44.256Z,4.20
2022-11-06T13:12:19.919Z,4.23
2022-11-06T13:15:05.658Z,3.80
2022-11-06T13:17:41.236Z,3.87
2022-11-06T13:20:15.599Z,4.17
2022-11-06T13:27:50.932Z,3.67
2022-11-06T13:30:21.768Z,3.87
2022-11-06T13:33:02.326Z,4.37
2022-11-06T13:35:32.218Z,4.03
2022-11-06T13:38:04.959Z,3.97
2022-11-06T13:40:36.828Z,3.80
2022-11-06T13:43:12.107Z,3.97
2022-11-06T13:45:47.670Z,3.87
2022-11-06T13:53:32.387Z,3.73
2022-11-06T13:56:10.329Z,4.10
2022-11-06T13:59:03.306Z,4.13
2022-11-06T14:01:44.084Z,3.90
2022-11-06T14:04:49.629Z,3.17
2022-11-06T14:07:21.378Z,3.17
2022-11-06T14:09:51.019Z,3.43
2022-11-06T14:17:25.848Z,3.07
2022-11-06T14:20:08.248Z,3.27
2022-11-06T14:22:37.546Z,2.60
2022-11-06T14:25:55.958Z,2.80
2022-11-06T14:28:33.235Z,2.50
2022-11-06T14:31:22.652Z,3.13
2022-11-06T14:42:15.236Z,2.60
2022-11-06T14:44:55.937Z,2.20
2022-11-06T14:47:44.490Z,2.70
2022-11-06T14:50:29.416Z,2.20
2022-11-06T14:53:00.227Z,2.50
2022-11-06T14:55:43.619Z,2.90
2022-11-06T14:58:25.339Z,3.03
2022-11-06T15:06:05.097Z,3.27
2022-11-06T15:09:21.830Z,2.70
2022-11-06T15:12:01.949Z,2.77
2022-11-06T15:15:02.998Z,3.37
2022-11-06T15:17:36.912Z,3.23
2022-11-06T15:20:27.880Z,2.90
2022-11-06T15:27:31.731Z,4.27
2022-11-06T15:34:32.261Z,2.83
2022-11-06T15:37:22.527Z,3.80
2022-11-06T15:40:35.006Z,3.47
2022-11-06T15:46:25.387Z,3.80
2022-11-06T15:53:01.660Z,3.47
2022-11-06T15:56:10.032Z,3.40
2022-11-06T15:59:11.486Z,3.97
2022-11-06T16:04:50.298Z,4.67
2022-11-06T16:07:20.417Z,5.00
2022-11-06T16:09:52.859Z,4.10
2022-11-06T16:12:23.127Z,4.53
2022-11-06T16:14:51.808Z,4.03
2022-11-06T16:17:28.897Z,5.03
2022-11-06T16:20:01.691Z,4.33
2022-11-06T16:22:34.170Z,4.60
2022-11-06T16:30:26.965Z,4.10
2022-11-06T16:32:59.930Z,4.00
2022-11-06T16:35:34.591Z,3.90
2022-11-06T16:38:40.968Z,4.13
2022-11-06T16:41:12.152Z,3.73
2022-11-06T16:43:41.983Z,4.10
2022-11-06T16:54:00.628Z,4.63
2022-11-06T16:56:31.728Z,4.20
2022-11-06T16:59:05.899Z,4.27
2022-11-06T17:01:44.398Z,4.10
2022-11-06T17:04:23.789Z,4.17
2022-11-06T17:06:53.107Z,3.70
2022-11-06T17:09:42.359Z,3.97
2022-11-06T17:12:14.785Z,4.63
2022-11-06T17:19:59.536Z,3.10
2022-11-06T17:22:36.099Z,3.10
2022-11-06T17:25:07.006Z,3.63
2022-11-06T17:27:35.391Z,2.67
2022-11-06T17:30:03.536Z,3.10
2022-11-06T17:32:32.565Z,3.47
2022-11-06T17:35:02.831Z,3.00
2022-11-06T17:40:14.143Z,3.13
2022-11-06T17:42:44.500Z,2.93
2022-11-06T17:45:12.513Z,3.27
2022-11-06T17:47:41.859Z,2.93
2022-11-06T17:50:14.551Z,3.67
2022-11-06T17:52:44.139Z,2.90
2022-11-06T17:55:15.621Z,3.27
2022-11-06T17:57:43.560Z,3.50
2022-11-06T18:03:22.783Z,3.77
2022-11-06T18:05:52.509Z,3.33
2022-11-06T18:08:39.430Z,3.67
2022-11-06T18:11:13.122Z,4.17
2022-11-06T18:13:50.531Z,4.17
2022-11-06T18:17:18.412Z,4.17
2022-11-06T18:19:56.171Z,3.80
2022-11-06T18:22:28.089Z,4.30
2022-11-06T18:24:58.285Z,5.30
2022-11-06T18:27:41.051Z,4.70
2022-11-06T18:35:13.739Z,5.93
2022-11-06T18:37:41.413Z,4.67
2022-11-06T18:40:11.169Z,4.97
2022-11-06T18:42:41.141Z,4.70
2022-11-06T18:45:10.012Z,4.90
2022-11-06T18:47:41.951Z,4.93
2022-11-06T18:50:13.389Z,4.77
2022-11-06T18:55:47.502Z,5.07
2022-11-06T18:58:20.572Z,5.30
2022-11-06T19:00:48.362Z,6.67
2022-11-06T19:03:17.377Z,5.97
2022-11-06T19:05:52.617Z,4.33
2022-11-06T19:08:25.679Z,5.60
2022-11-06T19:10:56.032Z,5.03
2022-11-06T19:13:26.091Z,5.37
2022-11-06T19:23:22.800Z,6.07
2022-11-06T19:26:04.626Z,5.97
2022-11-06T19:28:45.511Z,5.33
2022-11-06T19:31:25.482Z,6.27
2022-11-06T19:33:55.152Z,5.13
2022-11-06T19:36:25.679Z,5.50
2022-11-06T19:38:57.521Z,5.73
2022-11-06T19:47:05.783Z,6.43
2022-11-06T19:49:38.499Z,5.03
2022-11-06T19:52:43.175Z,6.20
2022-11-06T19:55:25.816Z,7.33
2022-11-06T19:57:54.832Z,7.17
2022-11-06T20:00:26.146Z,6.30
2022-11-06T20:02:57.271Z,6.70
2022-11-06T20:08:08.022Z,8.00
2022-11-06T20:10:37.611Z,6.63
2022-11-06T20:13:09.889Z,6.23
2022-11-06T20:15:42.530Z,4.83
2022-11-06T20:18:12.263Z,4.63
2022-11-06T20:20:43.169Z,5.07
2022-11-06T20:23:12.812Z,4.77
2022-11-06T20:30:53.242Z,3.53
2022-11-06T20:33:21.684Z,2.80
2022-11-06T20:35:51.092Z,3.13
2022-11-06T20:38:18.979Z,2.77
2022-11-06T20:40:49.389Z,3.23
2022-11-06T20:43:17.820Z,3.67
2022-11-06T20:45:47.280Z,2.90
2022-11-06T20:48:15.825Z,3.33
2022-11-06T20:53:42.764Z,3.57
2022-11-06T20:56:12.872Z,2.93
2022-11-06T20:58:40.579Z,2.93
2022-11-06T21:01:12.329Z,3.60
2022-11-06T21:03:41.420Z,3.33
2022-11-06T21:06:09.850Z,2.90
2022-11-06T21:08:39.591Z,2.43
2022-11-06T21:11:11.700Z,2.63
2022-11-06T21:18:45.530Z,2.93
2022-11-06T21:21:15.280Z,3.17
2022-11-06T21:23:43.201Z,2.67
2022-11-06T21:26:13.322Z,3.07
2022-11-06T21:28:44.211Z,3.30
2022-11-06T21:31:14.392Z,3.60
2022-11-06T21:33:43.321Z,3.50
2022-11-06T21:41:19.251Z,3.23
2022-11-06T21:43:49.290Z,3.13
2022-11-06T21:46:18.418Z,3.20
2022-11-06T21:48:47.960Z,3.27
2022-11-06T21:51:18.853Z,3.20
2022-11-06T21:54:04.859Z,3.17
2022-11-06T21:56:34.391Z,2.77
2022-11-06T21:59:06.669Z,3.07
2022-11-06T22:06:41.022Z,3.07
2022-11-06T22:09:08.829Z,2.70
2022-11-06T22:11:40.496Z,3.20
2022-11-06T22:14:10.733Z,2.67
2022-11-06T22:16:40.972Z,3.63
2022-11-06T22:19:09.872Z,3.83
2022-11-06T22:21:40.652Z,3.50
2022-11-06T22:24:10.899Z,2.63
2022-11-06T22:26:39.951Z,3.97
2022-11-06T22:34:25.321Z,3.60
2022-11-06T22:36:54.170Z,3.27
2022-11-06T22:39:22.328Z,3.30
2022-11-06T22:41:49.690Z,3.83
2022-11-06T22:44:18.392Z,4.00
2022-11-06T22:46:46.831Z,4.03
2022-11-06T22:49:14.270Z,3.60
2022-11-06T22:56:47.319Z,3.40
2022-11-06T22:59:15.500Z,3.40
2022-11-06T23:01:43.675Z,3.97
2022-11-06T23:04:15.036Z,3.90
2022-11-06T23:06:43.862Z,3.17
2022-11-06T23:09:11.890Z,3.20
2022-11-06T23:11:39.765Z,3.57
2022-11-06T23:14:09.373Z,4.10
2022-11-06T23:22:20.150Z,3.00
2022-11-06T23:24:49.411Z,3.37
2022-11-06T23:27:16.751Z,3.43
2022-11-06T23:29:43.950Z,3.40
2022-11-06T23:32:12.989Z,3.27
2022-11-06T23:34:40.210Z,3.07
2022-11-06T23:37:08.513Z,2.90
2022-11-06T23:39:35.831Z,3.10
2022-11-06T23:47:07.940Z,3.17
2022-11-06T23:49:35.869Z,3.23
2022-11-06T23:52:03.333Z,3.37
2022-11-06T23:54:32.122Z,3.23
2022-11-06T23:56:59.610Z,3.17
2022-11-06T23:59:26.949Z,3.67
